Spirit Of New York — WCW9332 — position and weather

sailwx.info

Track history (hours):
 
Tides and Currents Weather Stations Pressure Air Temp Water Temp Dewpoint Dewpoint Depression Visibility Wind Speed Wind Dir Waves Ship Positions

Spirit Of New York

Owner: SPIRIT CRUISES LLC, NEW YORK, NY. More information available from US FCC via Universal Licensing System and Coast Guard Vessel Documentation Center.

Last reported at 2017-Jun-23 22:00 UTC. Time now 2017-Jun-23 22:12 UTC.
Position N 40°45' W 074°01'.

Length 62 m.

Type: Passenger vessel. MMSI: 338897000.

Date/timePositionNaut miles runAvg speedWind from/ knotsBaromVisibWave heightAir tempDewpointWater temp
2017-Jun-23 22:00N 40°45' W 074°01'0 0.0
2017-Jun-23 21:30N 40°45' W 074°01'0 0.0
2017-Jun-23 21:00N 40°45' W 074°01'0 0.0
2017-Jun-23 20:30N 40°45' W 074°01'0 0.0
2017-Jun-23 20:00N 40°45' W 074°01'0 0.0
2017-Jun-23 19:30N 40°45' W 074°01'0 0.0
2017-Jun-23 19:00N 40°45' W 074°01'0 0.0
2017-Jun-23 18:29N 40°45' W 074°01'0 0.0
2017-Jun-23 18:00N 40°45' W 074°01'1 1.9
2017-Jun-23 17:30N 40°44' W 074°01'3 5.6
2017-Jun-23 17:00N 40°41' W 074°02'1 2.1
2017-Jun-23 16:30N 40°42' W 074°01'3 0.2
2017-Jun-23 01:29N 40°45' W 074°01'1 3.0
2017-Jun-23 01:00N 40°44' W 074°01'2 4.3
2017-Jun-23 00:30N 40°42' W 074°02'1 2.3
2017-Jun-23 00:00N 40°42' W 074°01'3 6.0
2017-Jun-22 23:30N 40°45' W 074°01'1 1.1
2017-Jun-22 23:00N 40°45' W 074°01'0 0.0
2017-Jun-22 22:31N 40°45' W 074°01'0 0.0
2017-Jun-22 22:00N 40°45' W 074°01'0 0.0
2017-Jun-22 21:30N 40°45' W 074°01'0 0.0
2017-Jun-22 21:00N 40°45' W 074°01'0 0.0
2017-Jun-22 20:29N 40°45' W 074°01'0 0.0
2017-Jun-22 20:00N 40°45' W 074°01'0 0.0
2017-Jun-22 19:30N 40°45' W 074°01'0 0.0
2017-Jun-22 19:00N 40°45' W 074°01'0 0.0
2017-Jun-22 18:30N 40°45' W 074°01'0 0.0
2017-Jun-22 18:00N 40°45' W 074°01'1 3.0
2017-Jun-22 17:31N 40°43' W 074°01'3 5.2
2017-Jun-22 17:00N 40°41' W 074°03'2 3.0
2017-Jun-22 16:30N 40°42' W 074°01'3 6.1
2017-Jun-22 16:00N 40°45' W 074°01'0 0.0
2017-Jun-22 15:30N 40°45' W 074°01'0 0.0
2017-Jun-22 15:00N 40°45' W 074°01'0 0.0
2017-Jun-22 01:25N 40°45' W 074°01'1 2.9
2017-Jun-22 01:00N 40°44' W 074°01'3 5.1
2017-Jun-22 00:30N 40°41' W 074°02'1 2.3
2017-Jun-22 00:00N 40°42' W 074°01'4 7.2
2017-Jun-21 23:30N 40°46' W 074°01'1 1.8
2017-Jun-21 23:00N 40°45' W 074°01'0 0.0
2017-Jun-21 22:30N 40°45' W 074°01'0 0.0
2017-Jun-21 18:07N 40°45' W 074°01'0 0.1
2017-Jun-21 18:00N 40°45' W 074°01'2 3.6
2017-Jun-21 17:30N 40°43' W 074°01'2 4.4
2017-Jun-21 17:00N 40°41' W 074°02'1 2.5
2017-Jun-21 16:31N 40°42' W 074°01'3 5.7
2017-Jun-21 16:00N 40°45' W 074°01'0 0.0
2017-Jun-21 15:30N 40°45' W 074°01'0 0.0
2017-Jun-21 15:01N 40°45' W 074°01'0 0.0
2017-Jun-21 14:30N 40°45' W 074°01'0 0.0
2017-Jun-21 01:55N 40°45' W 074°01'1 2.4
2017-Jun-21 01:31N 40°44' W 074°01'3 5.1
2017-Jun-21 01:01N 40°42' W 074°02'1 2.5
2017-Jun-21 00:31N 40°42' W 074°01'0 0.9
2017-Jun-21 00:01N 40°42' W 074°01'3 6.2
2017-Jun-20 23:31N 40°45' W 074°01'0 0.6
2017-Jun-20 23:00N 40°45' W 074°01'0 0.0
2017-Jun-20 22:30N 40°45' W 074°01'0 0.0
2017-Jun-20 22:00N 40°45' W 074°01'0 0.0
2017-Jun-20 21:30N 40°45' W 074°01'0 0.0
2017-Jun-20 21:00N 40°45' W 074°01'0 0.0
2017-Jun-20 20:30N 40°45' W 074°01'0 0.0
2017-Jun-20 20:00N 40°45' W 074°01'0 0.0
2017-Jun-20 19:30N 40°45' W 074°01'0 0.0
2017-Jun-20 19:00N 40°45' W 074°01'0 0.0
2017-Jun-20 18:30N 40°45' W 074°01'0 0.0
2017-Jun-20 18:00N 40°45' W 074°01'1 2.7
2017-Jun-20 17:30N 40°44' W 074°01'2 4.4
2017-Jun-20 17:01N 40°42' W 074°02'2 5.0
2017-Jun-20 16:31N 40°44' W 074°01'1 2.1
2017-Jun-20 16:00N 40°45' W 074°01'0 0.0
2017-Jun-20 15:30N 40°45' W 074°01'0 0.0
2017-Jun-20 15:00N 40°45' W 074°01'0 0.0
2017-Jun-20 14:30N 40°45' W 074°01'0 0.0
2017-Jun-20 13:30N 40°45' W 074°01'0 0.0
2017-Jun-20 01:30N 40°45' W 074°01'2 3.2
2017-Jun-20 01:00N 40°43' W 074°01'2 4.8
2017-Jun-20 00:30N 40°41' W 074°03'2 3.3
2017-Jun-20 00:00N 40°42' W 074°01'3 6.8
2017-Jun-19 23:30N 40°45' W 074°01'0 0.7
2017-Jun-19 23:00N 40°45' W 074°01'0 0.0
2017-Jun-19 22:30N 40°45' W 074°01'0 0.0
2017-Jun-19 22:00N 40°45' W 074°01'0 0.0
2017-Jun-19 21:30N 40°45' W 074°01'0 0.0
2017-Jun-19 21:00N 40°45' W 074°01'0 0.0
2017-Jun-19 20:30N 40°45' W 074°01'0 0.0
2017-Jun-19 20:00N 40°45' W 074°01'0 0.0
2017-Jun-19 19:30N 40°45' W 074°01'0 0.0
2017-Jun-19 19:00N 40°45' W 074°01'0 0.0
2017-Jun-19 18:30N 40°45' W 074°01'0 0.0
2017-Jun-19 18:00N 40°45' W 074°01'1 2.7
2017-Jun-19 17:30N 40°44' W 074°01'2 4.8
2017-Jun-19 17:01N 40°41' W 074°02'2 3.3
2017-Jun-19 16:30N 40°43' W 074°01'2 4.0
2017-Jun-19 16:00N 40°45' W 074°01'0 0.0
2017-Jun-19 15:30N 40°45' W 074°01'0 0.0
2017-Jun-19 15:00N 40°45' W 074°01'0 0.0
2017-Jun-19 01:20N 40°45' W 074°01'1 3.2
2017-Jun-19 01:00N 40°44' W 074°01'3 5.6
2017-Jun-19 00:30N 40°41' W 074°03'1 2.5
2017-Jun-19 00:00N 40°42' W 074°01'4 7.7
2017-Jun-18 23:30N 40°46' W 074°00'1 2.1
2017-Jun-18 23:00N 40°45' W 074°01'0 0.0
2017-Jun-18 22:30N 40°45' W 074°01'0 0.0
2017-Jun-18 22:00N 40°45' W 074°01'0 0.0
2017-Jun-18 21:30N 40°45' W 074°01'0 0.0
2017-Jun-18 21:00N 40°45' W 074°01'0 0.0
2017-Jun-18 18:33N 40°45' W 074°01'0 0.1
2017-Jun-18 18:30N 40°45' W 074°01'0 0.0
2017-Jun-18 18:00N 40°45' W 074°01'1 2.7
2017-Jun-18 17:30N 40°44' W 074°01'2 4.8
2017-Jun-18 17:00N 40°41' W 074°02'1 2.7
2017-Jun-18 16:31N 40°42' W 074°01'2 5.0
2017-Jun-18 16:00N 40°45' W 074°01'0 0.0
2017-Jun-18 15:30N 40°45' W 074°01'0 0.0
2017-Jun-18 15:00N 40°45' W 074°01'0 0.0
2017-Jun-18 02:00N 40°45' W 074°01'1 2.6
2017-Jun-18 01:31N 40°44' W 074°01'2 4.7
2017-Jun-18 01:01N 40°41' W 074°02'1 2.6
2017-Jun-18 00:30N 40°42' W 074°01'0 0.3
2017-Jun-18 00:01N 40°42' W 074°01'3 6.6
2017-Jun-17 23:31N 40°45' W 074°01'0 0.6
2017-Jun-17 23:00N 40°45' W 074°01'0 0.0
2017-Jun-17 22:31N 40°45' W 074°01'0 0.0
2017-Jun-17 22:00N 40°45' W 074°01'0 0.0
2017-Jun-17 21:31N 40°45' W 074°01'0 0.0
2017-Jun-17 21:01N 40°45' W 074°01'0 0.0
2017-Jun-17 20:30N 40°45' W 074°01'0 0.0
2017-Jun-17 20:00N 40°45' W 074°01'0 0.0
2017-Jun-17 19:30N 40°45' W 074°01'0 0.0
2017-Jun-17 19:00N 40°45' W 074°01'0 0.0
2017-Jun-17 18:30N 40°45' W 074°01'0 0.0
2017-Jun-17 18:00N 40°45' W 074°01'2 3.2
2017-Jun-17 17:31N 40°43' W 074°01'2 3.4
2017-Jun-17 17:00N 40°42' W 074°02'1 2.2
2017-Jun-17 16:31N 40°43' W 074°01'2 4.3
2017-Jun-17 16:01N 40°45' W 074°01'0 0.0
2017-Jun-17 15:30N 40°45' W 074°01'0 0.0
2017-Jun-17 15:00N 40°45' W 074°01'0 0.0
2017-Jun-17 08:55N 40°45' W 074°01'1 1.9
2017-Jun-17 08:30N 40°46' W 074°01'1 2.2
2017-Jun-17 08:00N 40°44' W 074°01'3 6.7
2017-Jun-17 07:30N 40°41' W 074°02'2 4.2
2017-Jun-17 07:00N 40°42' W 073°60'1 1.6
2017-Jun-17 06:30N 40°42' W 074°01'3 6.1
2017-Jun-17 06:00N 40°45' W 074°01'1 1.4
2017-Jun-17 05:30N 40°46' W 074°01'0 0.0
2017-Jun-17 05:00N 40°46' W 074°01'0 0.3
2017-Jun-17 04:30N 40°46' W 074°01'1 1.5
2017-Jun-17 04:00N 40°45' W 074°01'0 0.0
2017-Jun-17 03:30N 40°45' W 074°01'0 0.0
2017-Jun-17 03:00N 40°45' W 074°01'0 0.0
2017-Jun-17 02:30N 40°45' W 074°01'0 0.0
2017-Jun-17 02:00N 40°45' W 074°01'0 0.0
2017-Jun-17 01:30N 40°45' W 074°01'1 1.9
2017-Jun-17 01:00N 40°44' W 074°01'2 4.7
2017-Jun-17 00:30N 40°42' W 074°02'1 2.6
2017-Jun-17 00:00N 40°42' W 074°00'2 4.6
2017-Jun-16 23:30N 40°44' W 074°01'1 0.4
2017-Jun-16 21:45N 40°45' W 074°01'0 0.0
2017-Jun-16 21:30N 40°45' W 074°01'0 0.0
2017-Jun-16 18:29N 40°45' W 074°01'1 1.7
2017-Jun-16 18:00N 40°46' W 074°01'0 0.8
2017-Jun-16 17:30N 40°46' W 074°01'1 1.9
2017-Jun-16 17:00N 40°45' W 074°01'3 5.1
2017-Jun-16 16:30N 40°42' W 074°02'1 1.8
2017-Jun-16 16:00N 40°43' W 074°02'2 4.4
2017-Jun-16 15:30N 40°46' W 074°01'1 1.0
2017-Jun-16 15:00N 40°45' W 074°01'0 0.0
2017-Jun-16 02:28N 40°45' W 074°01'1 2.9
2017-Jun-16 02:00N 40°44' W 074°01'3 5.3
2017-Jun-16 01:30N 40°41' W 074°02'2 4.0
2017-Jun-16 01:01N 40°42' W 074°00'2 4.1
2017-Jun-16 00:31N 40°44' W 074°01'1 2.0
2017-Jun-16 00:00N 40°45' W 074°01'0 0.0
2017-Jun-15 23:30N 40°45' W 074°01'0 0.0
2017-Jun-15 23:01N 40°45' W 074°01'0 0.0
2017-Jun-15 22:30N 40°45' W 074°01'0 0.0
2017-Jun-15 22:00N 40°45' W 074°01'0 0.0
2017-Jun-15 21:30N 40°45' W 074°01'0 0.0
2017-Jun-15 21:00N 40°45' W 074°01'0 0.0
2017-Jun-15 20:30N 40°45' W 074°01'0 0.0
2017-Jun-15 20:00N 40°45' W 074°01'0 0.0
2017-Jun-15 19:30N 40°45' W 074°01'0 0.0
2017-Jun-15 18:59N 40°45' W 074°01'0 0.0
2017-Jun-15 18:30N 40°45' W 074°01'0 0.0
2017-Jun-15 18:00N 40°45' W 074°01'1 2.2
2017-Jun-15 17:30N 40°44' W 074°01'3 5.5
2017-Jun-15 17:01N 40°41' W 074°02'1 2.4
2017-Jun-15 16:31N 40°42' W 074°01'3 5.7
2017-Jun-15 16:00N 40°45' W 074°01'0 0.0
2017-Jun-15 15:30N 40°45' W 074°01'0 0.0
2017-Jun-15 02:02N 40°45' W 074°01'0 0.2
2017-Jun-15 02:00N 40°45' W 074°01'1 2.3
2017-Jun-15 01:30N 40°44' W 074°01'3 5.7
2017-Jun-15 01:00N 40°41' W 074°03'3 5.2
2017-Jun-15 00:30N 40°42' W 073°60'2 3.2
2017-Jun-15 00:00N 40°43' W 074°02'3 6.2
2017-Jun-14 23:30N 40°46' W 074°01'1 1.3
2017-Jun-14 23:00N 40°45' W 074°01'0 0.0
2017-Jun-14 22:30N 40°45' W 074°01'0 0.0
2017-Jun-14 22:00N 40°45' W 074°01'0 0.0
2017-Jun-14 21:30N 40°45' W 074°01'0 0.0
2017-Jun-14 16:55N 40°45' W 074°01'1 2.4
2017-Jun-14 16:31N 40°44' W 074°01'2 4.9
2017-Jun-14 16:01N 40°42' W 074°02'2 3.4
2017-Jun-14 15:31N 40°43' W 074°01'2 3.5
2017-Jun-14 15:00N 40°45' W 074°01'0 0.0
2017-Jun-14 14:30N 40°45' W 074°01'0 0.0
2017-Jun-14 01:29N 40°45' W 074°01'1 2.6
2017-Jun-14 01:00N 40°44' W 074°01'3 5.1
2017-Jun-14 00:30N 40°41' W 074°02'2 4.8
2017-Jun-14 00:00N 40°42' W 073°60'3 5.5
2017-Jun-13 23:30N 40°45' W 074°01'0 0.4
2017-Jun-13 23:00N 40°45' W 074°01'0 0.0
2017-Jun-13 22:30N 40°45' W 074°01'  
Track history (hours):
 
Tides and Currents Weather Stations Pressure Air Temp Water Temp Dewpoint Dewpoint Depression Visibility Wind Speed Wind Dir Waves Ship Positions

Spirit Of New York

Owner: SPIRIT CRUISES LLC, NEW YORK, NY. More information available from US FCC via Universal Licensing System and Coast Guard Vessel Documentation Center.

Last reported at 2017-Jun-23 22:00 UTC. Time now 2017-Jun-23 22:12 UTC.
Position N 40°45' W 074°01'.

Length 62 m.

Type: Passenger vessel. MMSI: 338897000.

Date/timePositionNaut miles runAvg speedWind from/ knotsBaromVisibWave heightAir tempDewpointWater temp
2017-Jun-23 22:00N 40°45' W 074°01'0 0.0
2017-Jun-23 21:30N 40°45' W 074°01'0 0.0
2017-Jun-23 21:00N 40°45' W 074°01'0 0.0
2017-Jun-23 20:30N 40°45' W 074°01'0 0.0
2017-Jun-23 20:00N 40°45' W 074°01'0 0.0
2017-Jun-23 19:30N 40°45' W 074°01'0 0.0
2017-Jun-23 19:00N 40°45' W 074°01'0 0.0
2017-Jun-23 18:29N 40°45' W 074°01'0 0.0
2017-Jun-23 18:00N 40°45' W 074°01'1 1.9
2017-Jun-23 17:30N 40°44' W 074°01'3 5.6
2017-Jun-23 17:00N 40°41' W 074°02'1 2.1
2017-Jun-23 16:30N 40°42' W 074°01'3 0.2
2017-Jun-23 01:29N 40°45' W 074°01'1 3.0
2017-Jun-23 01:00N 40°44' W 074°01'2 4.3
2017-Jun-23 00:30N 40°42' W 074°02'1 2.3
2017-Jun-23 00:00N 40°42' W 074°01'3 6.0
2017-Jun-22 23:30N 40°45' W 074°01'1 1.1
2017-Jun-22 23:00N 40°45' W 074°01'0 0.0
2017-Jun-22 22:31N 40°45' W 074°01'0 0.0
2017-Jun-22 22:00N 40°45' W 074°01'0 0.0
2017-Jun-22 21:30N 40°45' W 074°01'0 0.0
2017-Jun-22 21:00N 40°45' W 074°01'0 0.0
2017-Jun-22 20:29N 40°45' W 074°01'0 0.0
2017-Jun-22 20:00N 40°45' W 074°01'0 0.0
2017-Jun-22 19:30N 40°45' W 074°01'0 0.0
2017-Jun-22 19:00N 40°45' W 074°01'0 0.0
2017-Jun-22 18:30N 40°45' W 074°01'0 0.0
2017-Jun-22 18:00N 40°45' W 074°01'1 3.0
2017-Jun-22 17:31N 40°43' W 074°01'3 5.2
2017-Jun-22 17:00N 40°41' W 074°03'2 3.0
2017-Jun-22 16:30N 40°42' W 074°01'3 6.1
2017-Jun-22 16:00N 40°45' W 074°01'0 0.0
2017-Jun-22 15:30N 40°45' W 074°01'0 0.0
2017-Jun-22 15:00N 40°45' W 074°01'0 0.0
2017-Jun-22 01:25N 40°45' W 074°01'1 2.9
2017-Jun-22 01:00N 40°44' W 074°01'3 5.1
2017-Jun-22 00:30N 40°41' W 074°02'1 2.3
2017-Jun-22 00:00N 40°42' W 074°01'4 7.2
2017-Jun-21 23:30N 40°46' W 074°01'1 1.8
2017-Jun-21 23:00N 40°45' W 074°01'0 0.0
2017-Jun-21 22:30N 40°45' W 074°01'0 0.0
2017-Jun-21 18:07N 40°45' W 074°01'0 0.1
2017-Jun-21 18:00N 40°45' W 074°01'2 3.6
2017-Jun-21 17:30N 40°43' W 074°01'2 4.4
2017-Jun-21 17:00N 40°41' W 074°02'1 2.5
2017-Jun-21 16:31N 40°42' W 074°01'3 5.7
2017-Jun-21 16:00N 40°45' W 074°01'0 0.0
2017-Jun-21 15:30N 40°45' W 074°01'0 0.0
2017-Jun-21 15:01N 40°45' W 074°01'0 0.0
2017-Jun-21 14:30N 40°45' W 074°01'0 0.0
2017-Jun-21 01:55N 40°45' W 074°01'1 2.4
2017-Jun-21 01:31N 40°44' W 074°01'3 5.1
2017-Jun-21 01:01N 40°42' W 074°02'1 2.5
2017-Jun-21 00:31N 40°42' W 074°01'0 0.9
2017-Jun-21 00:01N 40°42' W 074°01'3 6.2
2017-Jun-20 23:31N 40°45' W 074°01'0 0.6
2017-Jun-20 23:00N 40°45' W 074°01'0 0.0
2017-Jun-20 22:30N 40°45' W 074°01'0 0.0
2017-Jun-20 22:00N 40°45' W 074°01'0 0.0
2017-Jun-20 21:30N 40°45' W 074°01'0 0.0
2017-Jun-20 21:00N 40°45' W 074°01'0 0.0
2017-Jun-20 20:30N 40°45' W 074°01'0 0.0
2017-Jun-20 20:00N 40°45' W 074°01'0 0.0
2017-Jun-20 19:30N 40°45' W 074°01'0 0.0
2017-Jun-20 19:00N 40°45' W 074°01'0 0.0
2017-Jun-20 18:30N 40°45' W 074°01'0 0.0
2017-Jun-20 18:00N 40°45' W 074°01'1 2.7
2017-Jun-20 17:30N 40°44' W 074°01'2 4.4
2017-Jun-20 17:01N 40°42' W 074°02'2 5.0
2017-Jun-20 16:31N 40°44' W 074°01'1 2.1
2017-Jun-20 16:00N 40°45' W 074°01'0 0.0
2017-Jun-20 15:30N 40°45' W 074°01'0 0.0
2017-Jun-20 15:00N 40°45' W 074°01'0 0.0
2017-Jun-20 14:30N 40°45' W 074°01'0 0.0
2017-Jun-20 13:30N 40°45' W 074°01'0 0.0
2017-Jun-20 01:30N 40°45' W 074°01'2 3.2
2017-Jun-20 01:00N 40°43' W 074°01'2 4.8
2017-Jun-20 00:30N 40°41' W 074°03'2 3.3
2017-Jun-20 00:00N 40°42' W 074°01'3 6.8
2017-Jun-19 23:30N 40°45' W 074°01'0 0.7
2017-Jun-19 23:00N 40°45' W 074°01'0 0.0
2017-Jun-19 22:30N 40°45' W 074°01'0 0.0
2017-Jun-19 22:00N 40°45' W 074°01'0 0.0
2017-Jun-19 21:30N 40°45' W 074°01'0 0.0
2017-Jun-19 21:00N 40°45' W 074°01'0 0.0
2017-Jun-19 20:30N 40°45' W 074°01'0 0.0
2017-Jun-19 20:00N 40°45' W 074°01'0 0.0
2017-Jun-19 19:30N 40°45' W 074°01'0 0.0
2017-Jun-19 19:00N 40°45' W 074°01'0 0.0
2017-Jun-19 18:30N 40°45' W 074°01'0 0.0
2017-Jun-19 18:00N 40°45' W 074°01'1 2.7
2017-Jun-19 17:30N 40°44' W 074°01'2 4.8
2017-Jun-19 17:01N 40°41' W 074°02'2 3.3
2017-Jun-19 16:30N 40°43' W 074°01'2 4.0
2017-Jun-19 16:00N 40°45' W 074°01'0 0.0
2017-Jun-19 15:30N 40°45' W 074°01'0 0.0
2017-Jun-19 15:00N 40°45' W 074°01'0 0.0
2017-Jun-19 01:20N 40°45' W 074°01'1 3.2
2017-Jun-19 01:00N 40°44' W 074°01'3 5.6
2017-Jun-19 00:30N 40°41' W 074°03'1 2.5
2017-Jun-19 00:00N 40°42' W 074°01'4 7.7
2017-Jun-18 23:30N 40°46' W 074°00'1 2.1
2017-Jun-18 23:00N 40°45' W 074°01'0 0.0
2017-Jun-18 22:30N 40°45' W 074°01'0 0.0
2017-Jun-18 22:00N 40°45' W 074°01'0 0.0
2017-Jun-18 21:30N 40°45' W 074°01'0 0.0
2017-Jun-18 21:00N 40°45' W 074°01'0 0.0
2017-Jun-18 18:33N 40°45' W 074°01'0 0.1
2017-Jun-18 18:30N 40°45' W 074°01'0 0.0
2017-Jun-18 18:00N 40°45' W 074°01'1 2.7
2017-Jun-18 17:30N 40°44' W 074°01'2 4.8
2017-Jun-18 17:00N 40°41' W 074°02'1 2.7
2017-Jun-18 16:31N 40°42' W 074°01'2 5.0
2017-Jun-18 16:00N 40°45' W 074°01'0 0.0
2017-Jun-18 15:30N 40°45' W 074°01'0 0.0
2017-Jun-18 15:00N 40°45' W 074°01'0 0.0
2017-Jun-18 02:00N 40°45' W 074°01'1 2.6
2017-Jun-18 01:31N 40°44' W 074°01'2 4.7
2017-Jun-18 01:01N 40°41' W 074°02'1 2.6
2017-Jun-18 00:30N 40°42' W 074°01'0 0.3
2017-Jun-18 00:01N 40°42' W 074°01'3 6.6
2017-Jun-17 23:31N 40°45' W 074°01'0 0.6
2017-Jun-17 23:00N 40°45' W 074°01'0 0.0
2017-Jun-17 22:31N 40°45' W 074°01'0 0.0
2017-Jun-17 22:00N 40°45' W 074°01'0 0.0
2017-Jun-17 21:31N 40°45' W 074°01'0 0.0
2017-Jun-17 21:01N 40°45' W 074°01'0 0.0
2017-Jun-17 20:30N 40°45' W 074°01'0 0.0
2017-Jun-17 20:00N 40°45' W 074°01'0 0.0
2017-Jun-17 19:30N 40°45' W 074°01'0 0.0
2017-Jun-17 19:00N 40°45' W 074°01'0 0.0
2017-Jun-17 18:30N 40°45' W 074°01'0 0.0
2017-Jun-17 18:00N 40°45' W 074°01'2 3.2
2017-Jun-17 17:31N 40°43' W 074°01'2 3.4
2017-Jun-17 17:00N 40°42' W 074°02'1 2.2
2017-Jun-17 16:31N 40°43' W 074°01'2 4.3
2017-Jun-17 16:01N 40°45' W 074°01'0 0.0
2017-Jun-17 15:30N 40°45' W 074°01'0 0.0
2017-Jun-17 15:00N 40°45' W 074°01'0 0.0
2017-Jun-17 08:55N 40°45' W 074°01'1 1.9
2017-Jun-17 08:30N 40°46' W 074°01'1 2.2
2017-Jun-17 08:00N 40°44' W 074°01'3 6.7
2017-Jun-17 07:30N 40°41' W 074°02'2 4.2
2017-Jun-17 07:00N 40°42' W 073°60'1 1.6
2017-Jun-17 06:30N 40°42' W 074°01'3 6.1
2017-Jun-17 06:00N 40°45' W 074°01'1 1.4
2017-Jun-17 05:30N 40°46' W 074°01'0 0.0
2017-Jun-17 05:00N 40°46' W 074°01'0 0.3
2017-Jun-17 04:30N 40°46' W 074°01'1 1.5
2017-Jun-17 04:00N 40°45' W 074°01'0 0.0
2017-Jun-17 03:30N 40°45' W 074°01'0 0.0
2017-Jun-17 03:00N 40°45' W 074°01'0 0.0
2017-Jun-17 02:30N 40°45' W 074°01'0 0.0
2017-Jun-17 02:00N 40°45' W 074°01'0 0.0
2017-Jun-17 01:30N 40°45' W 074°01'1 1.9
2017-Jun-17 01:00N 40°44' W 074°01'2 4.7
2017-Jun-17 00:30N 40°42' W 074°02'1 2.6
2017-Jun-17 00:00N 40°42' W 074°00'2 4.6
2017-Jun-16 23:30N 40°44' W 074°01'1 0.4
2017-Jun-16 21:45N 40°45' W 074°01'0 0.0
2017-Jun-16 21:30N 40°45' W 074°01'0 0.0
2017-Jun-16 18:29N 40°45' W 074°01'1 1.7
2017-Jun-16 18:00N 40°46' W 074°01'0 0.8
2017-Jun-16 17:30N 40°46' W 074°01'1 1.9
2017-Jun-16 17:00N 40°45' W 074°01'3 5.1
2017-Jun-16 16:30N 40°42' W 074°02'1 1.8
2017-Jun-16 16:00N 40°43' W 074°02'2 4.4
2017-Jun-16 15:30N 40°46' W 074°01'1 1.0
2017-Jun-16 15:00N 40°45' W 074°01'0 0.0
2017-Jun-16 02:28N 40°45' W 074°01'1 2.9
2017-Jun-16 02:00N 40°44' W 074°01'3 5.3
2017-Jun-16 01:30N 40°41' W 074°02'2 4.0
2017-Jun-16 01:01N 40°42' W 074°00'2 4.1
2017-Jun-16 00:31N 40°44' W 074°01'1 2.0
2017-Jun-16 00:00N 40°45' W 074°01'0 0.0
2017-Jun-15 23:30N 40°45' W 074°01'0 0.0
2017-Jun-15 23:01N 40°45' W 074°01'0 0.0
2017-Jun-15 22:30N 40°45' W 074°01'0 0.0
2017-Jun-15 22:00N 40°45' W 074°01'0 0.0
2017-Jun-15 21:30N 40°45' W 074°01'0 0.0
2017-Jun-15 21:00N 40°45' W 074°01'0 0.0
2017-Jun-15 20:30N 40°45' W 074°01'0 0.0
2017-Jun-15 20:00N 40°45' W 074°01'0 0.0
2017-Jun-15 19:30N 40°45' W 074°01'0 0.0
2017-Jun-15 18:59N 40°45' W 074°01'0 0.0
2017-Jun-15 18:30N 40°45' W 074°01'0 0.0
2017-Jun-15 18:00N 40°45' W 074°01'1 2.2
2017-Jun-15 17:30N 40°44' W 074°01'3 5.5
2017-Jun-15 17:01N 40°41' W 074°02'1 2.4
2017-Jun-15 16:31N 40°42' W 074°01'3 5.7
2017-Jun-15 16:00N 40°45' W 074°01'0 0.0
2017-Jun-15 15:30N 40°45' W 074°01'0 0.0
2017-Jun-15 02:02N 40°45' W 074°01'0 0.2
2017-Jun-15 02:00N 40°45' W 074°01'1 2.3
2017-Jun-15 01:30N 40°44' W 074°01'3 5.7
2017-Jun-15 01:00N 40°41' W 074°03'3 5.2
2017-Jun-15 00:30N 40°42' W 073°60'2 3.2
2017-Jun-15 00:00N 40°43' W 074°02'3 6.2
2017-Jun-14 23:30N 40°46' W 074°01'1 1.3
2017-Jun-14 23:00N 40°45' W 074°01'0 0.0
2017-Jun-14 22:30N 40°45' W 074°01'0 0.0
2017-Jun-14 22:00N 40°45' W 074°01'0 0.0
2017-Jun-14 21:30N 40°45' W 074°01'0 0.0
2017-Jun-14 16:55N 40°45' W 074°01'1 2.4
2017-Jun-14 16:31N 40°44' W 074°01'2 4.9
2017-Jun-14 16:01N 40°42' W 074°02'2 3.4
2017-Jun-14 15:31N 40°43' W 074°01'2 3.5
2017-Jun-14 15:00N 40°45' W 074°01'0 0.0
2017-Jun-14 14:30N 40°45' W 074°01'0 0.0
2017-Jun-14 01:29N 40°45' W 074°01'1 2.6
2017-Jun-14 01:00N 40°44' W 074°01'3 5.1
2017-Jun-14 00:30N 40°41' W 074°02'2 4.8
2017-Jun-14 00:00N 40°42' W 073°60'3 5.5
2017-Jun-13 23:30N 40°45' W 074°01'0 0.4
2017-Jun-13 23:00N 40°45' W 074°01'0 0.0
2017-Jun-13 22:30N 40°45' W 074°01'  

Dump ship's entire track history